createdAt,value
2018-02-08T00:00:04.824Z,1
2018-02-08T00:05:03.048Z,1
2018-02-08T00:10:02.590Z,1
2018-02-08T00:15:02.949Z,1
2018-02-08T00:20:03.401Z,1
2018-02-08T00:25:02.921Z,1
2018-02-08T00:30:03.354Z,1
2018-02-08T00:35:02.795Z,1
2018-02-08T00:40:03.299Z,1
2018-02-08T00:45:02.672Z,0
2018-02-08T00:50:02.567Z,0
2018-02-08T00:55:03.080Z,1
2018-02-08T01:00:02.511Z,1
2018-02-08T01:05:02.971Z,1
2018-02-08T01:10:02.486Z,1
2018-02-08T01:15:02.882Z,1
2018-02-08T01:20:03.350Z,0
2018-02-08T01:25:02.840Z,1
2018-02-08T01:30:03.277Z,1
2018-02-08T01:35:02.741Z,1
2018-02-08T01:40:03.227Z,1
2018-02-08T01:45:02.716Z,1
2018-02-08T01:50:03.191Z,1
2018-02-08T01:55:02.608Z,1
2018-02-08T02:00:03.108Z,1
2018-02-08T02:05:02.559Z,1
2018-02-08T02:10:03.104Z,1
2018-02-08T02:15:02.576Z,1
2018-02-08T02:20:03.064Z,1
2018-02-08T02:25:02.481Z,1
2018-02-08T02:30:02.993Z,1
2018-02-08T02:35:02.490Z,1
2018-02-08T02:40:03.020Z,1
2018-02-08T02:45:02.491Z,1
2018-02-08T02:50:03.201Z,1
2018-02-08T02:55:02.694Z,1
2018-02-08T03:00:03.097Z,1
2018-02-08T03:05:02.567Z,1
2018-02-08T03:10:03.146Z,1
2018-02-08T03:15:02.599Z,1
2018-02-08T03:20:03.043Z,1
2018-02-08T03:25:02.478Z,1
2018-02-08T03:30:03.011Z,1
2018-02-08T03:35:02.774Z,1
2018-02-08T03:40:03.351Z,1
2018-02-08T03:45:02.882Z,1
2018-02-08T03:50:03.402Z,1
2018-02-08T03:55:02.958Z,1
2018-02-08T04:00:02.469Z,1
2018-02-08T04:05:02.995Z,1
2018-02-08T04:10:02.670Z,1
2018-02-08T04:15:03.323Z,1
2018-02-08T04:20:02.789Z,1
2018-02-08T04:25:03.314Z,1
2018-02-08T04:30:02.841Z,1
2018-02-08T04:35:03.299Z,1
2018-02-08T04:40:02.873Z,1
2018-02-08T04:45:03.339Z,1
2018-02-08T04:50:02.831Z,1
2018-02-08T04:55:03.297Z,1
2018-02-08T05:00:02.827Z,1
2018-02-08T05:05:03.224Z,1
2018-02-08T05:10:02.754Z,1
2018-02-08T05:15:03.414Z,1
2018-02-08T05:20:02.815Z,1
2018-02-08T05:25:03.198Z,1
2018-02-08T05:30:03.367Z,1
2018-02-08T05:35:02.770Z,1
2018-02-08T05:40:03.302Z,1
2018-02-08T05:45:02.756Z,1
2018-02-08T05:50:03.212Z,1
2018-02-08T05:55:02.625Z,1
2018-02-08T06:00:03.032Z,1
2018-02-08T06:05:02.492Z,1
2018-02-08T06:10:02.894Z,1
2018-02-08T06:15:03.342Z,1
2018-02-08T06:20:02.794Z,1
2018-02-08T06:25:03.241Z,1
2018-02-08T06:30:02.662Z,3
2018-02-08T06:35:03.123Z,7
2018-02-08T06:40:02.667Z,16
2018-02-08T06:45:03.035Z,26
2018-02-08T06:50:03.556Z,42
2018-02-08T06:55:02.988Z,137
2018-02-08T07:00:02.466Z,179
2018-02-08T07:05:02.875Z,302
2018-02-08T07:10:03.392Z,360
2018-02-08T07:15:02.864Z,417
2018-02-08T07:20:03.444Z,524
2018-02-08T07:25:02.881Z,785
2018-02-08T07:30:03.321Z,873
2018-02-08T07:35:02.781Z,873
2018-02-08T07:40:03.204Z,835
2018-02-08T07:45:02.692Z,873
2018-02-08T07:50:03.145Z,902
2018-02-08T07:55:02.645Z,1000
2018-02-08T08:00:03.115Z,962
2018-02-08T08:05:02.537Z,932
2018-02-08T08:10:02.985Z,932
2018-02-08T08:15:02.514Z,1000
2018-02-08T08:20:03.084Z,1000
2018-02-08T08:25:02.540Z,1000
2018-02-08T08:30:03.243Z,2000
2018-02-08T08:35:02.674Z,2000
2018-02-08T08:40:03.203Z,2000
2018-02-08T08:45:02.622Z,14000
2018-02-08T08:50:03.041Z,19000
2018-02-08T08:55:02.497Z,20000
2018-02-08T09:00:03.048Z,18000
2018-02-08T09:05:02.594Z,18000
2018-02-08T09:10:03.169Z,14000
2018-02-08T09:15:02.550Z,14000
2018-02-08T09:20:03.005Z,24000
2018-02-08T09:25:02.504Z,28000
2018-02-08T09:30:02.927Z,29000
2018-02-08T09:35:03.381Z,30000
2018-02-08T09:40:02.939Z,31000
2018-02-08T09:45:02.508Z,32000
2018-02-08T09:50:03.033Z,26000
2018-02-08T09:55:02.469Z,25000
2018-02-08T10:00:02.943Z,21000
2018-02-08T10:05:03.434Z,24000
2018-02-08T10:10:02.913Z,31000
2018-02-08T10:15:03.443Z,33000
2018-02-08T10:20:02.974Z,34000
2018-02-08T10:25:02.473Z,33000
2018-02-08T10:30:02.857Z,29000
2018-02-08T10:35:03.439Z,25000
2018-02-08T10:40:02.954Z,28000
2018-02-08T10:45:03.462Z,25000
2018-02-08T10:50:03.104Z,27000
2018-02-08T10:55:02.868Z,29000
2018-02-08T11:00:03.287Z,30000
2018-02-08T11:05:02.791Z,26000
2018-02-08T11:10:03.314Z,26000
2018-02-08T11:15:02.834Z,29000
2018-02-08T11:20:03.402Z,32000
2018-02-08T11:25:02.844Z,22000
2018-02-08T11:30:03.351Z,30000
2018-02-08T11:35:02.713Z,32000
2018-02-08T11:40:03.133Z,32000
2018-02-08T11:45:02.621Z,30000
2018-02-08T11:50:03.202Z,30000
2018-02-08T11:55:02.659Z,26000
2018-02-08T12:00:03.090Z,18000
2018-02-08T12:05:02.564Z,21000
2018-02-08T12:10:03.117Z,12000
2018-02-08T12:15:02.567Z,21000
2018-02-08T12:20:03.103Z,18000
2018-02-08T12:25:02.581Z,15000
2018-02-08T12:30:03.036Z,22000
2018-02-08T12:35:02.520Z,21000
2018-02-08T12:40:03.111Z,24000
2018-02-08T12:45:02.594Z,24000
2018-02-08T12:50:03.159Z,23000
2018-02-08T12:55:02.655Z,25000
2018-02-08T13:00:03.136Z,21000
2018-02-08T13:05:02.539Z,24000
2018-02-08T13:10:03.058Z,26000
2018-02-08T13:15:03.588Z,20000
2018-02-08T13:20:03.152Z,22000
2018-02-08T13:25:02.594Z,25000
2018-02-08T13:30:03.156Z,24000
2018-02-08T13:35:02.723Z,23000
2018-02-08T13:40:03.216Z,18000
2018-02-08T13:45:02.635Z,22000
2018-02-08T13:50:03.119Z,22000
2018-02-08T13:55:02.591Z,20000
2018-02-08T14:00:03.181Z,12000
2018-02-08T14:05:02.829Z,11000
2018-02-08T14:10:03.332Z,17000
2018-02-08T14:15:02.791Z,16000
2018-02-08T14:20:02.479Z,12000
2018-02-08T14:25:03.000Z,11000
2018-02-08T14:30:02.492Z,17000
2018-02-08T14:35:02.926Z,15000
2018-02-08T14:40:02.442Z,15000
2018-02-08T14:45:02.927Z,10000
2018-02-08T14:50:03.339Z,11000
2018-02-08T14:55:02.806Z,5000
2018-02-08T15:00:03.387Z,13000
2018-02-08T15:05:03.356Z,12000
2018-02-08T15:10:03.112Z,8000
2018-02-08T15:15:02.593Z,9000
2018-02-08T15:20:03.314Z,5000
2018-02-08T15:25:02.819Z,6000
2018-02-08T15:30:03.320Z,2000
2018-02-08T15:35:02.704Z,2000
2018-02-08T15:40:03.211Z,8000
2018-02-08T15:45:03.046Z,1000
2018-02-08T15:50:02.559Z,1000
2018-02-08T15:55:03.113Z,1000
2018-02-08T16:00:02.603Z,925
2018-02-08T16:05:03.050Z,894
2018-02-08T16:10:02.548Z,842
2018-02-08T16:15:03.015Z,726
2018-02-08T16:20:02.550Z,594
2018-02-08T16:25:03.017Z,485
2018-02-08T16:30:02.554Z,222
2018-02-08T16:35:02.939Z,102
2018-02-08T16:40:03.557Z,65
2018-02-08T16:45:03.016Z,63
2018-02-08T16:50:02.548Z,41
2018-02-08T16:55:03.090Z,26
2018-02-08T17:00:02.558Z,12
2018-02-08T17:05:02.998Z,7
2018-02-08T17:10:02.492Z,4
2018-02-08T17:15:02.962Z,1
2018-02-08T17:20:02.469Z,1
2018-02-08T17:25:02.929Z,0
2018-02-08T17:30:03.444Z,0
2018-02-08T17:35:02.918Z,0
2018-02-08T17:40:03.588Z,0
2018-02-08T17:45:02.770Z,0
2018-02-08T17:50:03.324Z,0
2018-02-08T17:55:02.725Z,0
2018-02-08T18:00:03.129Z,0
2018-02-08T18:05:02.668Z,0
2018-02-08T18:10:03.203Z,0
2018-02-08T18:15:02.636Z,0
2018-02-08T18:20:03.144Z,0
2018-02-08T18:25:02.551Z,0
2018-02-08T18:30:03.045Z,0
2018-02-08T18:35:02.595Z,0
2018-02-08T18:40:03.078Z,0
2018-02-08T18:45:02.743Z,0
2018-02-08T18:50:03.311Z,0
2018-02-08T18:55:02.753Z,0
2018-02-08T19:00:03.214Z,0
2018-02-08T19:05:02.665Z,0
2018-02-08T19:10:03.265Z,0
2018-02-08T19:15:02.641Z,0
2018-02-08T19:20:03.151Z,0
2018-02-08T19:25:02.670Z,0
2018-02-08T19:30:03.128Z,0
2018-02-08T19:35:02.532Z,0
2018-02-08T19:40:03.056Z,0
2018-02-08T19:45:02.852Z,0
2018-02-08T19:50:03.294Z,0
2018-02-08T19:55:02.763Z,0
2018-02-08T20:00:03.268Z,0
2018-02-08T20:05:02.836Z,0
2018-02-08T20:10:03.501Z,0
2018-02-08T20:15:03.107Z,0
2018-02-08T20:20:02.497Z,0
2018-02-08T20:25:03.230Z,0
2018-02-08T20:30:02.897Z,0
2018-02-08T20:35:02.493Z,0
2018-02-08T20:40:03.058Z,0
2018-02-08T20:45:02.506Z,0
2018-02-08T20:50:03.000Z,0
2018-02-08T20:55:03.427Z,0
2018-02-08T21:00:02.956Z,0
2018-02-08T21:05:02.518Z,0
2018-02-08T21:10:03.092Z,0
2018-02-08T21:15:02.742Z,0
2018-02-08T21:20:03.394Z,0
2018-02-08T21:25:02.813Z,0
2018-02-08T21:30:03.447Z,0
2018-02-08T21:35:02.890Z,0
2018-02-08T21:40:02.469Z,0
2018-02-08T21:45:02.954Z,0
2018-02-08T21:50:02.497Z,0
2018-02-08T21:55:02.938Z,0
2018-02-08T22:00:02.472Z,1
2018-02-08T22:05:02.981Z,0
2018-02-08T22:10:02.495Z,0
2018-02-08T22:15:02.998Z,0
2018-02-08T22:20:03.450Z,0
2018-02-08T22:25:02.905Z,0
2018-02-08T22:30:02.469Z,1
2018-02-08T22:35:03.138Z,1
2018-02-08T22:40:02.659Z,1
2018-02-08T22:45:03.161Z,0
2018-02-08T22:50:02.625Z,0
2018-02-08T22:55:03.221Z,0
2018-02-08T23:00:02.765Z,1
2018-02-08T23:05:02.629Z,0
2018-02-08T23:10:03.251Z,1
2018-02-08T23:15:02.679Z,0
2018-02-08T23:20:03.343Z,1
2018-02-08T23:25:02.790Z,0
2018-02-08T23:30:03.437Z,1
2018-02-08T23:35:03.030Z,0
2018-02-08T23:40:02.742Z,1
2018-02-08T23:45:03.249Z,1
2018-02-08T23:50:02.676Z,1
2018-02-08T23:55:03.131Z,1
